KNUW/NUW METAR and TAF weather

Enter ICAO airport designator
Station Type Date Time Source
KNUW METAR 2019/08/25 20:56 UTC NOAA

KNUW 252056Z 26007KT 10SM FEW035 SCT045 SCT080 21/11 A3024 RMK AO2 SLP238 T02060111 51005 $


Station Type Date Time Source
KNUW Decoded METAR 2019/08/25 20:56 UTC NOAA

Station name not available
Aug 25, 2019 - 04:56 PM EDT / 2019.08.25 2056 UTC
Wind: from the W (260 degrees) at 8 MPH (7 KT):0
Visibility: 10 mile(s):0
Sky conditions: partly cloudy
Temperature: 69.1 F (20.6 C)
Dew Point: 52.0 F (11.1 C)
Relative Humidity: 54%
Pressure (altimeter): 30.24 in. Hg (1024 hPa)
Pressure tendency: 0.01 inches (0.5 hPa) higher than three hours ago
ob: KNUW 252056Z 26007KT 10SM FEW035 SCT045 SCT080 21/11 A3024 RMK AO2 SLP238 T02060111 51005
cycle: 21

Station Type Date Time Source
KNUW TAF 2019/08/25 15:12 UTC NOAA

TAF KNUW 2515/2615 21006KT 9999 FEW015 BKN025 OVC045 QNH3010INS
BECMG 2518/2519 VRB06KT 9999 FEW025 SCT045 QNH3009INS
TEMPO 2609/2615 6000 BR BKN025 T20/2522Z T14/2612Z FS30129

Example: see airport list